sensor_id;sensor_type;location;lat;lon;timestamp;pressure;altitude;pressure_sealevel;temperature;humidity
72942;BME280;69665;55.822;37.330;2023-05-19T00:00:02;100132.25;;;17.07;40.89
72942;BME280;69665;55.822;37.330;2023-05-19T00:02:37;100136.88;;;17.03;37.25
72942;BME280;69665;55.822;37.330;2023-05-19T00:05:04;100132.84;;;16.96;38.18
72942;BME280;69665;55.822;37.330;2023-05-19T00:07:30;100146.47;;;16.90;39.32
72942;BME280;69665;55.822;37.330;2023-05-19T00:09:57;100143.16;;;16.86;39.50
72942;BME280;69665;55.822;37.330;2023-05-19T00:12:23;100132.06;;;16.78;38.64
72942;BME280;69665;55.822;37.330;2023-05-19T00:14:48;100126.84;;;16.77;39.80
72942;BME280;69665;55.822;37.330;2023-05-19T00:17:14;100140.41;;;16.88;41.96
72942;BME280;69665;55.822;37.330;2023-05-19T00:19:41;100144.97;;;16.86;39.27
72942;BME280;69665;55.822;37.330;2023-05-19T00:22:09;100157.13;;;16.90;39.70
72942;BME280;69665;55.822;37.330;2023-05-19T00:24:35;100163.31;;;16.75;41.47
72942;BME280;69665;55.822;37.330;2023-05-19T00:27:01;100164.25;;;16.74;39.24
72942;BME280;69665;55.822;37.330;2023-05-19T00:29:27;100156.13;;;16.59;39.08
72942;BME280;69665;55.822;37.330;2023-05-19T00:31:53;100159.97;;;16.54;37.38
72942;BME280;69665;55.822;37.330;2023-05-19T00:34:18;100175.31;;;16.49;40.75
72942;BME280;69665;55.822;37.330;2023-05-19T00:36:44;100177.03;;;16.50;37.68
72942;BME280;69665;55.822;37.330;2023-05-19T00:39:12;100161.31;;;16.45;40.92
72942;BME280;69665;55.822;37.330;2023-05-19T00:41:38;100169.31;;;16.45;40.28
72942;BME280;69665;55.822;37.330;2023-05-19T00:44:05;100171.34;;;16.40;38.39
72942;BME280;69665;55.822;37.330;2023-05-19T00:46:30;100187.44;;;16.37;40.86
72942;BME280;69665;55.822;37.330;2023-05-19T00:48:56;100185.06;;;16.33;42.04
72942;BME280;69665;55.822;37.330;2023-05-19T00:51:25;100175.28;;;16.33;37.07
72942;BME280;69665;55.822;37.330;2023-05-19T00:53:50;100178.91;;;16.15;37.63
72942;BME280;69665;55.822;37.330;2023-05-19T00:56:17;100175.47;;;16.13;38.94
72942;BME280;69665;55.822;37.330;2023-05-19T00:58:43;100175.50;;;15.95;39.96
72942;BME280;69665;55.822;37.330;2023-05-19T01:01:09;100164.72;;;15.81;39.93
72942;BME280;69665;55.822;37.330;2023-05-19T01:03:36;100172.97;;;15.92;40.14
72942;BME280;69665;55.822;37.330;2023-05-19T01:06:03;100185.63;;;15.87;40.71
72942;BME280;69665;55.822;37.330;2023-05-19T01:08:34;100191.44;;;15.78;41.98
72942;BME280;69665;55.822;37.330;2023-05-19T01:11:07;100189.09;;;15.72;40.92
72942;BME280;69665;55.822;37.330;2023-05-19T01:13:34;100199.38;;;15.61;41.58
72942;BME280;69665;55.822;37.330;2023-05-19T01:16:04;100199.03;;;15.50;40.26
72942;BME280;69665;55.822;37.330;2023-05-19T01:27:17;100225.44;;;15.34;43.22
72942;BME280;69665;55.822;37.330;2023-05-19T01:32:42;100239.81;;;14.92;41.91
72942;BME280;69665;55.822;37.330;2023-05-19T01:35:11;100228.53;;;14.87;43.35
72942;BME280;69665;55.822;37.330;2023-05-19T01:37:39;100230.53;;;14.82;42.40
72942;BME280;69665;55.822;37.330;2023-05-19T01:40:08;100212.63;;;14.69;42.65
72942;BME280;69665;55.822;37.330;2023-05-19T01:42:36;100223.88;;;14.74;43.09
72942;BME280;69665;55.822;37.330;2023-05-19T01:45:05;100241.44;;;14.76;42.59
72942;BME280;69665;55.822;37.330;2023-05-19T01:47:36;100241.31;;;14.79;41.64
72942;BME280;69665;55.822;37.330;2023-05-19T01:50:05;100246.16;;;14.70;42.28
72942;BME280;69665;55.822;37.330;2023-05-19T01:52:31;100253.16;;;14.52;40.87
72942;BME280;69665;55.822;37.330;2023-05-19T01:54:57;100253.72;;;14.38;39.27
72942;BME280;69665;55.822;37.330;2023-05-19T02:05:34;100260.88;;;13.96;42.51
72942;BME280;69665;55.822;37.330;2023-05-19T02:08:21;100234.44;;;13.94;43.16
72942;BME280;69665;55.822;37.330;2023-05-19T02:11:06;100252.38;;;14.08;41.45
72942;BME280;69665;55.822;37.330;2023-05-19T02:13:36;100250.53;;;14.10;41.44
72942;BME280;69665;55.822;37.330;2023-05-19T02:16:05;100258.66;;;14.05;41.20
72942;BME280;69665;55.822;37.330;2023-05-19T02:18:32;100247.38;;;14.02;41.64
72942;BME280;69665;55.822;37.330;2023-05-19T02:21:00;100253.66;;;13.99;42.82
72942;BME280;69665;55.822;37.330;2023-05-19T02:23:26;100250.84;;;13.82;40.50
72942;BME280;69665;55.822;37.330;2023-05-19T02:25:51;100252.03;;;13.75;41.00
72942;BME280;69665;55.822;37.330;2023-05-19T02:28:17;100258.19;;;13.75;41.65
72942;BME280;69665;55.822;37.330;2023-05-19T02:30:43;100257.28;;;13.76;40.10
72942;BME280;69665;55.822;37.330;2023-05-19T02:33:08;100247.78;;;13.71;37.57
72942;BME280;69665;55.822;37.330;2023-05-19T02:35:36;100237.06;;;13.52;41.26
72942;BME280;69665;55.822;37.330;2023-05-19T02:38:01;100253.63;;;13.57;39.68
72942;BME280;69665;55.822;37.330;2023-05-19T02:40:27;100263.34;;;13.56;39.33
72942;BME280;69665;55.822;37.330;2023-05-19T02:42:56;100257.59;;;13.47;41.94
72942;BME280;69665;55.822;37.330;2023-05-19T02:45:21;100274.84;;;13.55;41.50
72942;BME280;69665;55.822;37.330;2023-05-19T02:47:47;100267.78;;;13.56;40.07
72942;BME280;69665;55.822;37.330;2023-05-19T02:50:12;100275.72;;;13.56;42.14
72942;BME280;69665;55.822;37.330;2023-05-19T02:52:38;100267.72;;;13.57;38.56
72942;BME280;69665;55.822;37.330;2023-05-19T02:55:04;100276.41;;;13.61;42.60
72942;BME280;69665;55.822;37.330;2023-05-19T02:57:30;100256.22;;;13.58;41.64
72942;BME280;69665;55.822;37.330;2023-05-19T02:59:56;100273.47;;;13.69;41.65
72942;BME280;69665;55.822;37.330;2023-05-19T03:02:21;100269.94;;;13.68;40.73
72942;BME280;69665;55.822;37.330;2023-05-19T03:04:47;100265.47;;;13.70;39.89
72942;BME280;69665;55.822;37.330;2023-05-19T03:07:13;100270.56;;;13.75;41.37
72942;BME280;69665;55.822;37.330;2023-05-19T03:09:39;100275.81;;;13.76;40.92
72942;BME280;69665;55.822;37.330;2023-05-19T03:12:05;100276.44;;;13.81;43.64
72942;BME280;69665;55.822;37.330;2023-05-19T03:14:35;100278.28;;;13.79;38.71
72942;BME280;69665;55.822;37.330;2023-05-19T03:17:02;100283.06;;;13.71;40.05
72942;BME280;69665;55.822;37.330;2023-05-19T03:19:27;100289.22;;;13.72;41.57
72942;BME280;69665;55.822;37.330;2023-05-19T03:21:53;100293.03;;;13.65;39.89
72942;BME280;69665;55.822;37.330;2023-05-19T03:24:20;100295.16;;;13.55;42.28
72942;BME280;69665;55.822;37.330;2023-05-19T03:26:46;100279.84;;;13.41;42.88
72942;BME280;69665;55.822;37.330;2023-05-19T03:29:12;100299.72;;;13.51;42.98
72942;BME280;69665;55.822;37.330;2023-05-19T03:31:38;100306.50;;;13.58;44.66
72942;BME280;69665;55.822;37.330;2023-05-19T03:34:04;100300.22;;;13.61;42.42
72942;BME280;69665;55.822;37.330;2023-05-19T03:36:29;100302.31;;;13.53;43.20
72942;BME280;69665;55.822;37.330;2023-05-19T03:39:07;100307.47;;;13.56;44.56
72942;BME280;69665;55.822;37.330;2023-05-19T03:41:33;100306.31;;;13.63;46.54
72942;BME280;69665;55.822;37.330;2023-05-19T03:44:04;100295.91;;;13.58;39.60
72942;BME280;69665;55.822;37.330;2023-05-19T03:46:29;100306.56;;;13.57;41.96
72942;BME280;69665;55.822;37.330;2023-05-19T03:49:09;100307.84;;;13.47;43.62
72942;BME280;69665;55.822;37.330;2023-05-19T03:51:56;100311.44;;;13.46;46.56
72942;BME280;69665;55.822;37.330;2023-05-19T03:54:51;100299.91;;;13.47;47.50
72942;BME280;69665;55.822;37.330;2023-05-19T03:57:18;100297.94;;;13.52;44.68
72942;BME280;69665;55.822;37.330;2023-05-19T03:59:46;100297.94;;;13.52;46.61
72942;BME280;69665;55.822;37.330;2023-05-19T04:02:11;100290.00;;;13.52;48.03
72942;BME280;69665;55.822;37.330;2023-05-19T04:04:37;100317.47;;;13.71;45.80
72942;BME280;69665;55.822;37.330;2023-05-19T04:07:03;100317.72;;;13.65;46.97
72942;BME280;69665;55.822;37.330;2023-05-19T04:09:28;100304.19;;;13.51;45.04
72942;BME280;69665;55.822;37.330;2023-05-19T04:11:56;100321.91;;;13.49;46.29
72942;BME280;69665;55.822;37.330;2023-05-19T04:14:25;100300.91;;;13.44;47.67
72942;BME280;69665;55.822;37.330;2023-05-19T04:16:50;100322.50;;;13.55;44.12
72942;BME280;69665;55.822;37.330;2023-05-19T04:19:16;100318.56;;;13.44;43.05
72942;BME280;69665;55.822;37.330;2023-05-19T04:21:42;100302.44;;;13.27;44.78
72942;BME280;69665;55.822;37.330;2023-05-19T04:24:07;100329.16;;;13.44;42.50
72942;BME280;69665;55.822;37.330;2023-05-19T04:26:33;100315.06;;;13.43;41.11
72942;BME280;69665;55.822;37.330;2023-05-19T04:28:59;100321.44;;;13.38;42.66
72942;BME280;69665;55.822;37.330;2023-05-19T04:31:28;100314.53;;;13.34;43.78
72942;BME280;69665;55.822;37.330;2023-05-19T04:33:54;100310.56;;;13.45;41.24
72942;BME280;69665;55.822;37.330;2023-05-19T04:36:21;100317.69;;;13.43;43.49
72942;BME280;69665;55.822;37.330;2023-05-19T04:38:48;100312.03;;;13.52;42.20
72942;BME280;69665;55.822;37.330;2023-05-19T04:41:19;100314.13;;;13.44;41.09
72942;BME280;69665;55.822;37.330;2023-05-19T04:43:46;100319.66;;;13.60;41.98
72942;BME280;69665;55.822;37.330;2023-05-19T04:46:13;100296.25;;;13.51;45.00
72942;BME280;69665;55.822;37.330;2023-05-19T04:48:39;100317.09;;;13.80;43.36
72942;BME280;69665;55.822;37.330;2023-05-19T04:51:05;100328.53;;;13.81;40.61
72942;BME280;69665;55.822;37.330;2023-05-19T04:53:32;100330.44;;;13.77;42.97
72942;BME280;69665;55.822;37.330;2023-05-19T04:55:59;100331.13;;;13.82;44.49
72942;BME280;69665;55.822;37.330;2023-05-19T04:58:31;100337.53;;;13.99;44.17
72942;BME280;69665;55.822;37.330;2023-05-19T05:00:56;100332.13;;;14.02;44.26
72942;BME280;69665;55.822;37.330;2023-05-19T05:03:23;100337.25;;;14.05;42.31
72942;BME280;69665;55.822;37.330;2023-05-19T05:05:50;100318.19;;;13.97;43.85
72942;BME280;69665;55.822;37.330;2023-05-19T05:08:16;100342.00;;;14.18;45.16
72942;BME280;69665;55.822;37.330;2023-05-19T05:10:49;100327.59;;;14.25;45.30
72942;BME280;69665;55.822;37.330;2023-05-19T05:13:19;100338.81;;;14.31;42.81
72942;BME280;69665;55.822;37.330;2023-05-19T05:15:46;100338.75;;;14.32;43.57
72942;BME280;69665;55.822;37.330;2023-05-19T05:18:14;100341.41;;;14.32;41.97
72942;BME280;69665;55.822;37.330;2023-05-19T05:20:41;100341.28;;;14.35;41.51
72942;BME280;69665;55.822;37.330;2023-05-19T05:23:09;100307.81;;;14.12;42.94
72942;BME280;69665;55.822;37.330;2023-05-19T05:25:37;100344.75;;;14.37;43.17
72942;BME280;69665;55.822;37.330;2023-05-19T05:28:02;100336.38;;;14.48;44.46
72942;BME280;69665;55.822;37.330;2023-05-19T05:30:32;100338.53;;;14.58;42.38
72942;BME280;69665;55.822;37.330;2023-05-19T05:32:58;100345.66;;;14.78;38.79
72942;BME280;69665;55.822;37.330;2023-05-19T05:35:32;100346.53;;;14.79;41.88
72942;BME280;69665;55.822;37.330;2023-05-19T05:37:58;100344.91;;;14.95;38.92
72942;BME280;69665;55.822;37.330;2023-05-19T05:40:26;100351.53;;;14.85;39.92
72942;BME280;69665;55.822;37.330;2023-05-19T05:42:52;100356.31;;;14.77;41.81
72942;BME280;69665;55.822;37.330;2023-05-19T05:45:21;100351.94;;;14.96;42.79
72942;BME280;69665;55.822;37.330;2023-05-19T05:47:48;100364.56;;;15.10;42.22
72942;BME280;69665;55.822;37.330;2023-05-19T05:50:14;100357.31;;;15.13;39.95
72942;BME280;69665;55.822;37.330;2023-05-19T05:52:40;100370.38;;;15.18;42.84
72942;BME280;69665;55.822;37.330;2023-05-19T05:55:11;100362.28;;;15.21;42.44
72942;BME280;69665;55.822;37.330;2023-05-19T05:57:38;100349.75;;;15.24;42.54
72942;BME280;69665;55.822;37.330;2023-05-19T06:00:07;100359.72;;;15.38;42.98
72942;BME280;69665;55.822;37.330;2023-05-19T06:02:49;100361.25;;;15.63;41.99
72942;BME280;69665;55.822;37.330;2023-05-19T06:05:16;100342.16;;;15.73;39.53
72942;BME280;69665;55.822;37.330;2023-05-19T06:07:44;100362.31;;;15.96;39.24
72942;BME280;69665;55.822;37.330;2023-05-19T06:10:13;100351.47;;;16.01;39.48
72942;BME280;69665;55.822;37.330;2023-05-19T06:12:39;100363.25;;;16.12;40.64
72942;BME280;69665;55.822;37.330;2023-05-19T06:15:07;100355.94;;;16.17;40.65
72942;BME280;69665;55.822;37.330;2023-05-19T06:17:52;100343.50;;;16.18;39.18
72942;BME280;69665;55.822;37.330;2023-05-19T06:20:19;100366.25;;;16.06;38.69
72942;BME280;69665;55.822;37.330;2023-05-19T06:22:45;100356.84;;;15.99;40.67
72942;BME280;69665;55.822;37.330;2023-05-19T06:25:14;100362.38;;;15.94;39.82
72942;BME280;69665;55.822;37.330;2023-05-19T06:27:40;100367.19;;;15.86;41.11
72942;BME280;69665;55.822;37.330;2023-05-19T06:30:07;100361.97;;;16.21;40.43
72942;BME280;69665;55.822;37.330;2023-05-19T06:32:39;100363.47;;;16.44;39.45
72942;BME280;69665;55.822;37.330;2023-05-19T06:35:06;100361.69;;;16.61;38.46
72942;BME280;69665;55.822;37.330;2023-05-19T06:37:33;100363.53;;;16.94;38.32
72942;BME280;69665;55.822;37.330;2023-05-19T06:39:58;100365.25;;;17.12;38.31
72942;BME280;69665;55.822;37.330;2023-05-19T06:42:24;100363.56;;;17.27;38.75
72942;BME280;69665;55.822;37.330;2023-05-19T06:45:05;100351.56;;;17.36;34.97
72942;BME280;69665;55.822;37.330;2023-05-19T06:47:31;100365.59;;;17.22;35.23
72942;BME280;69665;55.822;37.330;2023-05-19T06:49:58;100368.78;;;17.28;37.50
72942;BME280;69665;55.822;37.330;2023-05-19T06:52:29;100374.75;;;17.49;36.66
72942;BME280;69665;55.822;37.330;2023-05-19T06:54:55;100368.00;;;17.59;36.77
72942;BME280;69665;55.822;37.330;2023-05-19T06:57:21;100356.94;;;17.83;35.15
72942;BME280;69665;55.822;37.330;2023-05-19T06:59:46;100376.78;;;18.09;35.43
72942;BME280;69665;55.822;37.330;2023-05-19T07:02:13;100376.31;;;18.32;35.15
72942;BME280;69665;55.822;37.330;2023-05-19T07:04:38;100375.25;;;18.80;36.57
72942;BME280;69665;55.822;37.330;2023-05-19T07:07:05;100369.63;;;18.85;34.44
72942;BME280;69665;55.822;37.330;2023-05-19T07:09:31;100365.97;;;18.72;33.43
72942;BME280;69665;55.822;37.330;2023-05-19T07:11:57;100373.28;;;19.41;33.58
72942;BME280;69665;55.822;37.330;2023-05-19T07:14:23;100372.47;;;19.95;34.25
72942;BME280;69665;55.822;37.330;2023-05-19T07:16:50;100372.69;;;20.32;32.05
72942;BME280;69665;55.822;37.330;2023-05-19T07:19:15;100351.47;;;19.89;33.29
72942;BME280;69665;55.822;37.330;2023-05-19T07:21:44;100381.50;;;19.52;32.02
72942;BME280;69665;55.822;37.330;2023-05-19T07:24:10;100394.38;;;19.17;33.79
72942;BME280;69665;55.822;37.330;2023-05-19T07:26:36;100361.84;;;19.10;31.16
72942;BME280;69665;55.822;37.330;2023-05-19T07:29:01;100388.16;;;19.30;33.12
72942;BME280;69665;55.822;37.330;2023-05-19T07:31:27;100377.16;;;19.92;32.04
72942;BME280;69665;55.822;37.330;2023-05-19T07:33:53;100371.41;;;20.25;31.51
72942;BME280;69665;55.822;37.330;2023-05-19T07:36:18;100371.13;;;20.69;30.08
72942;BME280;69665;55.822;37.330;2023-05-19T07:38:45;100385.63;;;21.43;30.24
72942;BME280;69665;55.822;37.330;2023-05-19T07:41:11;100385.28;;;22.57;28.87
72942;BME280;69665;55.822;37.330;2023-05-19T07:43:36;100376.50;;;22.66;28.17
72942;BME280;69665;55.822;37.330;2023-05-19T07:46:02;100381.09;;;22.88;27.84
72942;BME280;69665;55.822;37.330;2023-05-19T07:48:28;100387.63;;;22.73;27.92
72942;BME280;69665;55.822;37.330;2023-05-19T07:50:54;100383.00;;;23.10;27.24
72942;BME280;69665;55.822;37.330;2023-05-19T07:53:20;100381.41;;;23.96;27.52
72942;BME280;69665;55.822;37.330;2023-05-19T07:55:47;100380.81;;;25.30;26.52
72942;BME280;69665;55.822;37.330;2023-05-19T07:58:13;100382.56;;;27.18;25.21
72942;BME280;69665;55.822;37.330;2023-05-19T08:00:39;100369.75;;;29.52;23.85
72942;BME280;69665;55.822;37.330;2023-05-19T08:03:08;100380.09;;;30.82;22.26
72942;BME280;69665;55.822;37.330;2023-05-19T08:05:34;100380.50;;;31.58;22.29
72942;BME280;69665;55.822;37.330;2023-05-19T08:08:03;100389.50;;;33.20;20.61
72942;BME280;69665;55.822;37.330;2023-05-19T08:10:29;100361.13;;;34.46;20.40
72942;BME280;69665;55.822;37.330;2023-05-19T08:12:55;100378.88;;;34.56;19.70
72942;BME280;69665;55.822;37.330;2023-05-19T08:15:21;100377.66;;;34.59;19.63
72942;BME280;69665;55.822;37.330;2023-05-19T08:17:46;100386.28;;;34.77;19.45
72942;BME280;69665;55.822;37.330;2023-05-19T08:20:12;100374.59;;;34.90;19.42
72942;BME280;69665;55.822;37.330;2023-05-19T08:22:38;100389.69;;;35.28;18.63
72942;BME280;69665;55.822;37.330;2023-05-19T08:25:03;100387.59;;;35.30;19.14
72942;BME280;69665;55.822;37.330;2023-05-19T08:27:30;100376.09;;;35.48;18.74
72942;BME280;69665;55.822;37.330;2023-05-19T08:29:56;100383.59;;;35.33;18.95
72942;BME280;69665;55.822;37.330;2023-05-19T08:32:22;100389.63;;;35.91;18.77
72942;BME280;69665;55.822;37.330;2023-05-19T08:34:48;100380.00;;;36.08;19.15
72942;BME280;69665;55.822;37.330;2023-05-19T08:37:14;100381.03;;;35.66;18.67
72942;BME280;69665;55.822;37.330;2023-05-19T08:39:39;100386.75;;;35.36;19.16
72942;BME280;69665;55.822;37.330;2023-05-19T08:42:05;100381.06;;;36.20;18.44
72942;BME280;69665;55.822;37.330;2023-05-19T08:44:36;100384.16;;;36.91;15.90
72942;BME280;69665;55.822;37.330;2023-05-19T08:47:04;100382.69;;;37.35;17.98
72942;BME280;69665;55.822;37.330;2023-05-19T08:49:35;100378.91;;;36.90;17.26
72942;BME280;69665;55.822;37.330;2023-05-19T08:54:52;100365.94;;;36.31;17.08
72942;BME280;69665;55.822;37.330;2023-05-19T08:57:21;100369.13;;;36.48;17.24
72942;BME280;69665;55.822;37.330;2023-05-19T08:59:49;100367.06;;;36.63;18.05
72942;BME280;69665;55.822;37.330;2023-05-19T09:02:15;100349.25;;;36.39;17.48
72942;BME280;69665;55.822;37.330;2023-05-19T09:04:42;100372.81;;;36.07;16.98
72942;BME280;69665;55.822;37.330;2023-05-19T09:07:11;100358.50;;;35.36;16.24
72942;BME280;69665;55.822;37.330;2023-05-19T09:09:37;100356.88;;;34.64;17.90
72942;BME280;69665;55.822;37.330;2023-05-19T09:12:07;100356.59;;;34.17;18.37
72942;BME280;69665;55.822;37.330;2023-05-19T09:14:32;100345.81;;;34.51;17.66
72942;BME280;69665;55.822;37.330;2023-05-19T09:16:59;100353.81;;;33.95;18.30
72942;BME280;69665;55.822;37.330;2023-05-19T09:19:27;100352.38;;;33.78;17.92
72942;BME280;69665;55.822;37.330;2023-05-19T09:21:57;100343.94;;;33.80;17.72
72942;BME280;69665;55.822;37.330;2023-05-19T09:24:25;100357.88;;;32.74;17.90
72942;BME280;69665;55.822;37.330;2023-05-19T09:26:54;100336.56;;;30.74;18.85
72942;BME280;69665;55.822;37.330;2023-05-19T09:29:21;100353.16;;;29.03;19.73
72942;BME280;69665;55.822;37.330;2023-05-19T09:34:16;100358.09;;;26.13;20.61
72942;BME280;69665;55.822;37.330;2023-05-19T09:36:42;100343.28;;;25.48;21.71
72942;BME280;69665;55.822;37.330;2023-05-19T09:39:18;100351.19;;;25.10;21.55
72942;BME280;69665;55.822;37.330;2023-05-19T09:41:44;100357.56;;;24.88;21.83
72942;BME280;69665;55.822;37.330;2023-05-19T09:44:24;100330.28;;;24.81;21.83
72942;BME280;69665;55.822;37.330;2023-05-19T09:46:54;100343.75;;;24.40;21.82
72942;BME280;69665;55.822;37.330;2023-05-19T09:49:25;100324.53;;;24.01;22.25
72942;BME280;69665;55.822;37.330;2023-05-19T09:51:54;100342.56;;;23.67;22.28
72942;BME280;69665;55.822;37.330;2023-05-19T09:54:21;100349.69;;;23.57;22.16
72942;BME280;69665;55.822;37.330;2023-05-19T09:56:58;100346.09;;;23.45;22.64
72942;BME280;69665;55.822;37.330;2023-05-19T09:59:24;100357.75;;;23.34;22.32
72942;BME280;69665;55.822;37.330;2023-05-19T10:01:55;100329.16;;;23.56;22.35
72942;BME280;69665;55.822;37.330;2023-05-19T10:04:22;100345.28;;;23.33;22.18
72942;BME280;69665;55.822;37.330;2023-05-19T10:06:55;100343.66;;;23.20;22.82
72942;BME280;69665;55.822;37.330;2023-05-19T10:09:25;100332.81;;;23.10;22.34
72942;BME280;69665;55.822;37.330;2023-05-19T10:11:51;100339.59;;;22.92;22.27
72942;BME280;69665;55.822;37.330;2023-05-19T10:14:25;100332.28;;;22.83;22.52
72942;BME280;69665;55.822;37.330;2023-05-19T10:16:56;100338.50;;;22.94;22.29
72942;BME280;69665;55.822;37.330;2023-05-19T10:19:25;100321.47;;;22.60;22.50
72942;BME280;69665;55.822;37.330;2023-05-19T10:21:51;100335.63;;;22.74;22.30
72942;BME280;69665;55.822;37.330;2023-05-19T10:24:18;100329.47;;;22.84;22.54
72942;BME280;69665;55.822;37.330;2023-05-19T10:29:19;100328.41;;;23.20;22.34
72942;BME280;69665;55.822;37.330;2023-05-19T10:31:46;100311.78;;;23.60;22.34
72942;BME280;69665;55.822;37.330;2023-05-19T10:37:07;100316.03;;;23.51;22.26
72942;BME280;69665;55.822;37.330;2023-05-19T10:39:41;100313.97;;;23.66;21.90
72942;BME280;69665;55.822;37.330;2023-05-19T10:42:35;100331.94;;;23.77;22.05
72942;BME280;69665;55.822;37.330;2023-05-19T10:45:19;100343.81;;;23.63;21.80
72942;BME280;69665;55.822;37.330;2023-05-19T10:47:45;100324.88;;;23.31;21.63
72942;BME280;69665;55.822;37.330;2023-05-19T10:50:11;100338.63;;;22.82;22.13
72942;BME280;69665;55.822;37.330;2023-05-19T10:52:38;100337.44;;;22.62;22.05
72942;BME280;69665;55.822;37.330;2023-05-19T10:55:08;100346.22;;;22.53;22.28
72942;BME280;69665;55.822;37.330;2023-05-19T10:57:34;100335.72;;;22.61;22.10
72942;BME280;69665;55.822;37.330;2023-05-19T11:00:26;100324.63;;;22.65;22.49
72942;BME280;69665;55.822;37.330;2023-05-19T11:02:52;100337.19;;;22.65;22.32
72942;BME280;69665;55.822;37.330;2023-05-19T11:05:28;100336.22;;;22.55;22.63
72942;BME280;69665;55.822;37.330;2023-05-19T11:07:56;100339.81;;;22.43;22.15
72942;BME280;69665;55.822;37.330;2023-05-19T11:10:26;100330.25;;;22.27;22.72
72942;BME280;69665;55.822;37.330;2023-05-19T11:12:52;100336.72;;;22.36;22.45
72942;BME280;69665;55.822;37.330;2023-05-19T11:15:24;100337.34;;;22.40;22.44
72942;BME280;69665;55.822;37.330;2023-05-19T11:17:51;100339.13;;;22.52;22.59
72942;BME280;69665;55.822;37.330;2023-05-19T11:20:24;100327.06;;;22.68;22.26
72942;BME280;69665;55.822;37.330;2023-05-19T11:23:16;100336.09;;;22.56;22.18
72942;BME280;69665;55.822;37.330;2023-05-19T11:25:46;100332.19;;;22.25;22.23
72942;BME280;69665;55.822;37.330;2023-05-19T11:28:17;100330.59;;;22.23;22.46
72942;BME280;69665;55.822;37.330;2023-05-19T11:30:45;100335.44;;;22.18;22.27
72942;BME280;69665;55.822;37.330;2023-05-19T11:33:12;100329.06;;;22.08;22.50
72942;BME280;69665;55.822;37.330;2023-05-19T11:35:38;100342.50;;;22.08;22.24
72942;BME280;69665;55.822;37.330;2023-05-19T11:38:05;100329.53;;;21.89;21.99
72942;BME280;69665;55.822;37.330;2023-05-19T11:40:31;100331.22;;;21.66;22.31
72942;BME280;69665;55.822;37.330;2023-05-19T11:42:57;100338.09;;;21.70;22.67
72942;BME280;69665;55.822;37.330;2023-05-19T11:45:27;100330.06;;;21.57;22.30
72942;BME280;69665;55.822;37.330;2023-05-19T11:47:57;100335.31;;;21.59;22.56
72942;BME280;69665;55.822;37.330;2023-05-19T11:50:23;100341.72;;;21.69;22.42
72942;BME280;69665;55.822;37.330;2023-05-19T11:52:50;100334.88;;;21.65;22.61
72942;BME280;69665;55.822;37.330;2023-05-19T11:55:17;100342.09;;;21.88;22.74
72942;BME280;69665;55.822;37.330;2023-05-19T12:00:24;100326.47;;;21.82;22.47
72942;BME280;69665;55.822;37.330;2023-05-19T12:02:50;100331.13;;;21.91;22.30
72942;BME280;69665;55.822;37.330;2023-05-19T12:05:25;100336.53;;;21.55;22.42
72942;BME280;69665;55.822;37.330;2023-05-19T12:07:52;100336.63;;;21.53;22.45
72942;BME280;69665;55.822;37.330;2023-05-19T12:10:37;100349.03;;;21.67;22.46
72942;BME280;69665;55.822;37.330;2023-05-19T12:13:04;100351.94;;;21.64;22.38
72942;BME280;69665;55.822;37.330;2023-05-19T12:15:30;100325.22;;;21.62;22.38
72942;BME280;69665;55.822;37.330;2023-05-19T12:17:58;100349.81;;;21.56;22.36
72942;BME280;69665;55.822;37.330;2023-05-19T12:20:25;100357.22;;;21.53;22.33
72942;BME280;69665;55.822;37.330;2023-05-19T12:22:53;100319.81;;;21.39;22.56
72942;BME280;69665;55.822;37.330;2023-05-19T12:25:19;100345.00;;;21.36;22.31
72942;BME280;69665;55.822;37.330;2023-05-19T12:27:45;100348.25;;;21.03;22.87
72942;BME280;69665;55.822;37.330;2023-05-19T12:30:13;100352.41;;;21.07;23.03
72942;BME280;69665;55.822;37.330;2023-05-19T12:32:38;100343.09;;;20.87;22.48
72942;BME280;69665;55.822;37.330;2023-05-19T12:35:05;100335.38;;;20.70;22.81
72942;BME280;69665;55.822;37.330;2023-05-19T12:37:31;100357.22;;;20.77;23.23
72942;BME280;69665;55.822;37.330;2023-05-19T12:39:58;100361.72;;;20.89;22.92
72942;BME280;69665;55.822;37.330;2023-05-19T12:42:27;100351.78;;;21.04;23.19
72942;BME280;69665;55.822;37.330;2023-05-19T12:45:02;100356.38;;;21.14;22.63
72942;BME280;69665;55.822;37.330;2023-05-19T12:47:30;100348.66;;;20.97;22.64
72942;BME280;69665;55.822;37.330;2023-05-19T12:50:04;100345.22;;;20.82;23.02
72942;BME280;69665;55.822;37.330;2023-05-19T12:52:33;100362.25;;;20.94;22.75
72942;BME280;69665;55.822;37.330;2023-05-19T12:55:07;100363.88;;;20.96;22.82
72942;BME280;69665;55.822;37.330;2023-05-19T12:57:34;100336.88;;;20.74;22.67
72942;BME280;69665;55.822;37.330;2023-05-19T13:00:14;100357.44;;;20.99;22.73
72942;BME280;69665;55.822;37.330;2023-05-19T13:03:05;100357.00;;;21.05;22.92
72942;BME280;69665;55.822;37.330;2023-05-19T13:05:33;100343.00;;;21.02;22.48
72942;BME280;69665;55.822;37.330;2023-05-19T13:08:00;100358.31;;;20.99;22.72
72942;BME280;69665;55.822;37.330;2023-05-19T13:10:34;100351.88;;;20.89;22.56
72942;BME280;69665;55.822;37.330;2023-05-19T13:13:04;100356.38;;;20.89;22.56
72942;BME280;69665;55.822;37.330;2023-05-19T13:15:31;100365.78;;;20.82;22.45
72942;BME280;69665;55.822;37.330;2023-05-19T13:18:03;100354.66;;;20.75;22.78